Time;durP1;ratioP1;P1;durP2;ratioP2;P2;SDS_P1;SDS_P2;PMS_P1;PMS_P2;Temp;Humidity;BMP_temperature;BMP_pressure;BME280_temperature;BME280_humidity;BME280_pressure;Samples;Min_cycle;Max_cycle;Signal;HPM_P1;HPM_P2
2022/01/05 00:00:33;;;;;;;;;62.00;53.50;;;;;;;;5051973;28;8808;-77
2022/01/05 00:03:01;;;;;;;;;57.00;50.50;;;;;;;;5050496;27;9477;-78
2022/01/05 00:05:26;;;;;;;;;61.50;51.75;;;;;;;;5051881;28;9675;-77
2022/01/05 00:07:55;;;;;;;;;54.33;48.00;;;;;;;;5050087;27;8824;-77
2022/01/05 00:10:22;;;;;;;;;64.50;55.50;;;;;;;;5051354;27;9499;-77
2022/01/05 00:12:48;;;;;;;;;63.50;53.50;;;;;;;;5051495;28;9762;-76
2022/01/05 00:15:13;;;;;;;;;63.00;54.00;;;;;;;;5051821;28;8816;-77
2022/01/05 00:17:38;;;;;;;;;67.33;57.33;;;;;;;;5063289;27;11635;-78
2022/01/05 00:20:05;;;;;;;;;66.00;56.67;;;;;;;;5051327;27;9060;-78
2022/01/05 00:22:30;;;;;;;;;71.75;59.25;;;;;;;;5052062;28;10922;-78
2022/01/05 00:24:58;;;;;;;;;65.00;54.75;;;;;;;;5051142;27;8959;-79
2022/01/05 00:27:24;;;;;;;;;67.50;56.50;;;;;;;;5051680;28;8889;-78
2022/01/05 00:29:49;;;;;;;;;61.25;51.50;;;;;;;;5052716;27;8835;-78
2022/01/05 00:32:15;;;;;;;;;62.50;53.75;;;;;;;;5051521;28;8812;-77
2022/01/05 00:34:40;;;;;;;;;42.75;41.50;;;;;;;;5051886;27;9535;-81
2022/01/05 00:37:05;;;;;;;;;62.33;52.67;;;;;;;;5051866;27;8835;-80
2022/01/05 00:39:31;;;;;;;;;43.50;41.75;;;;;;;;5050053;28;8835;-80
2022/01/05 00:41:56;;;;;;;;;39.33;38.00;;;;;;;;5050438;27;9459;-80
2022/01/05 00:44:21;;;;;;;;;42.00;41.00;;;;;;;;5104271;27;8813;-80
2022/01/05 00:46:47;;;;;;;;;40.50;39.00;;;;;;;;5087106;27;8817;-80
2022/01/05 00:49:12;;;;;;;;;39.50;39.25;;;;;;;;5062026;27;8839;-80
2022/01/05 00:51:38;;;;;;;;;38.75;37.75;;;;;;;;5097713;27;8790;-80
2022/01/05 00:54:07;;;;;;;;;53.00;47.25;;;;;;;;5064341;27;8856;-80
2022/01/05 00:56:32;;;;;;;;;66.25;55.50;;;;;;;;5048364;27;8790;-81
2022/01/05 00:58:58;;;;;;;;;61.25;52.00;;;;;;;;5056214;28;8825;-80
2022/01/05 01:01:24;;;;;;;;;69.00;57.75;;;;;;;;5060600;27;8803;-80
2022/01/05 01:03:50;;;;;;;;;60.25;51.25;;;;;;;;5051432;28;9047;-81
2022/01/05 01:06:15;;;;;;;;;66.75;57.50;;;;;;;;5051656;27;9006;-81
2022/01/05 01:08:40;;;;;;;;;66.00;54.75;;;;;;;;5051318;28;8832;-81
2022/01/05 01:11:06;;;;;;;;;63.67;55.00;;;;;;;;5049929;28;8891;-79
2022/01/05 01:13:31;;;;;;;;;60.50;50.75;;;;;;;;5051397;27;8808;-79
2022/01/05 01:15:57;;;;;;;;;65.75;54.75;;;;;;;;5051316;28;8822;-79
2022/01/05 01:18:22;;;;;;;;;72.00;61.33;;;;;;;;5118770;27;8828;-78
2022/01/05 01:20:48;;;;;;;;;73.33;61.00;;;;;;;;5051192;28;8961;-77
2022/01/05 01:23:17;;;;;;;;;68.00;56.00;;;;;;;;5064705;27;8906;-77
2022/01/05 01:25:46;;;;;;;;;77.60;65.00;;;;;;;;5050822;28;8812;-79
2022/01/05 01:28:11;;;;;;;;;73.25;61.75;;;;;;;;5049794;27;8772;-76
2022/01/05 01:30:36;;;;;;;;;86.33;70.67;;;;;;;;5051211;28;8812;-76
2022/01/05 01:33:02;;;;;;;;;85.67;71.00;;;;;;;;5049764;28;8846;-76
2022/01/05 01:35:27;;;;;;;;;80.00;66.75;;;;;;;;5049626;28;9616;-73
2022/01/05 01:37:53;;;;;;;;;91.67;76.67;;;;;;;;5050720;28;8864;-76
2022/01/05 01:40:19;;;;;;;;;80.20;66.60;;;;;;;;5050955;28;9785;-76
2022/01/05 01:42:45;;;;;;;;;86.25;69.75;;;;;;;;5047831;28;8835;-76
2022/01/05 01:45:13;;;;;;;;;96.00;83.67;;;;;;;;5046422;28;8805;-76
2022/01/05 01:47:39;;;;;;;;;113.67;110.00;;;;;;;;5119718;27;8816;-76
2022/01/05 01:50:05;;;;;;;;;98.00;88.50;;;;;;;;5049342;28;9132;-76
2022/01/05 01:52:30;;;;;;;;;86.20;71.00;;;;;;;;5055930;27;8792;-76
2022/01/05 01:54:56;;;;;;;;;88.67;73.67;;;;;;;;5050723;28;8808;-76
2022/01/05 01:57:21;;;;;;;;;97.50;86.75;;;;;;;;5058509;27;9066;-76
2022/01/05 01:59:50;;;;;;;;;88.25;73.25;;;;;;;;5050774;28;8906;-76
2022/01/05 02:02:15;;;;;;;;;97.20;87.00;;;;;;;;5064367;27;8812;-76
2022/01/05 02:04:42;;;;;;;;;87.00;69.50;;;;;;;;5050936;28;8819;-76
2022/01/05 02:07:07;;;;;;;;;82.50;68.75;;;;;;;;5050707;28;8847;-76
2022/01/05 02:09:32;;;;;;;;;103.00;97.67;;;;;;;;5048688;27;8942;-76
2022/01/05 02:11:58;;;;;;;;;78.67;65.33;;;;;;;;5050564;28;9264;-76
2022/01/05 02:14:23;;;;;;;;;88.50;72.50;;;;;;;;5051146;28;8804;-76
2022/01/05 02:16:48;;;;;;;;;75.50;62.25;;;;;;;;5048964;28;8828;-76
2022/01/05 02:19:16;;;;;;;;;95.25;80.25;;;;;;;;5050932;27;8933;-76
2022/01/05 02:21:42;;;;;;;;;73.25;61.50;;;;;;;;5053057;28;8797;-76
2022/01/05 02:24:09;;;;;;;;;79.00;64.00;;;;;;;;5061129;27;11526;-76
2022/01/05 02:26:35;;;;;;;;;69.50;59.25;;;;;;;;5050383;28;8765;-76
2022/01/05 02:29:00;;;;;;;;;95.20;82.60;;;;;;;;5050083;27;11560;-76
2022/01/05 02:31:28;;;;;;;;;79.75;65.75;;;;;;;;5049285;28;8819;-76
2022/01/05 02:33:57;;;;;;;;;86.20;70.00;;;;;;;;5050162;27;8956;-76
2022/01/05 02:36:22;;;;;;;;;78.00;64.67;;;;;;;;5054159;28;8781;-76
2022/01/05 02:38:49;;;;;;;;;72.00;61.00;;;;;;;;5059851;27;8830;-76
2022/01/05 02:41:14;;;;;;;;;85.75;71.75;;;;;;;;5050275;28;8826;-76
2022/01/05 02:43:40;;;;;;;;;77.25;64.75;;;;;;;;5081115;27;8834;-76
2022/01/05 02:46:10;;;;;;;;;79.60;67.00;;;;;;;;5076627;27;8797;-76
2022/01/05 02:48:38;;;;;;;;;88.00;73.40;;;;;;;;5095853;27;9744;-76
2022/01/05 02:51:06;;;;;;;;;56.50;50.50;;;;;;;;5071526;27;8830;-76
2022/01/05 02:53:34;;;;;;;;;71.00;60.00;;;;;;;;5091353;27;11776;-76
2022/01/05 02:55:59;;;;;;;;;65.00;55.50;;;;;;;;5049320;28;8968;-76
2022/01/05 02:58:24;;;;;;;;;67.00;56.33;;;;;;;;5054518;27;8902;-76
2022/01/05 03:00:50;;;;;;;;;71.50;59.50;;;;;;;;5049365;27;10282;-76
2022/01/05 03:03:15;;;;;;;;;72.50;61.50;;;;;;;;5050466;27;8820;-76
2022/01/05 03:05:46;;;;;;;;;62.67;54.00;;;;;;;;5048531;28;8812;-76
2022/01/05 03:08:11;;;;;;;;;38.00;37.00;;;;;;;;5048486;28;11488;-76
2022/01/05 03:10:37;;;;;;;;;63.33;54.67;;;;;;;;5049804;28;9733;-76
2022/01/05 03:13:02;;;;;;;;;62.75;54.50;;;;;;;;5048406;28;8827;-76
2022/01/05 03:15:28;;;;;;;;;49.50;43.75;;;;;;;;5051366;27;9661;-76
2022/01/05 03:17:53;;;;;;;;;74.25;62.25;;;;;;;;5054961;27;8842;-76
2022/01/05 03:20:19;;;;;;;;;67.50;57.25;;;;;;;;5053039;27;9654;-76
2022/01/05 03:22:45;;;;;;;;;46.75;42.75;;;;;;;;5066126;28;8793;-76
2022/01/05 03:25:19;;;;;;;;;43.00;42.00;;;;;;;;5051419;27;8826;-76
2022/01/05 03:27:48;;;;;;;;;61.00;53.00;;;;;;;;5052561;28;8772;-76
2022/01/05 03:30:16;;;;;;;;;57.75;49.00;;;;;;;;5052970;27;8784;-76
2022/01/05 03:35:21;;;;;;;;;52.50;47.50;;;;;;;;5052873;28;8788;-76
2022/01/05 03:37:49;;;;;;;;;37.33;36.00;;;;;;;;5052434;28;8795;-76
2022/01/05 03:40:14;;;;;;;;;53.50;48.25;;;;;;;;5052528;28;8780;-76
2022/01/05 03:42:39;;;;;;;;;53.00;47.67;;;;;;;;5051872;27;9583;-76
2022/01/05 03:45:05;;;;;;;;;43.33;42.00;;;;;;;;5106050;27;11542;-76
2022/01/05 03:47:31;;;;;;;;;60.75;51.00;;;;;;;;5116372;27;8829;-76
2022/01/05 03:49:57;;;;;;;;;53.75;47.00;;;;;;;;5050934;27;8836;-76
2022/01/05 03:52:25;;;;;;;;;60.25;52.50;;;;;;;;5069688;27;8930;-76
2022/01/05 03:54:53;;;;;;;;;62.25;53.75;;;;;;;;5050836;27;8796;-76
2022/01/05 03:57:18;;;;;;;;;49.25;44.75;;;;;;;;5054848;27;9705;-76
2022/01/05 03:59:46;;;;;;;;;54.00;48.33;;;;;;;;5052425;27;8796;-76
2022/01/05 04:02:11;;;;;;;;;53.25;48.00;;;;;;;;5052504;28;9718;-76
2022/01/05 04:04:36;;;;;;;;;56.67;50.33;;;;;;;;5052797;27;8886;-76
2022/01/05 04:07:02;;;;;;;;;65.67;56.00;;;;;;;;5051946;28;10439;-76
2022/01/05 04:09:28;;;;;;;;;65.00;55.50;;;;;;;;5050668;27;10480;-76
2022/01/05 04:11:53;;;;;;;;;45.67;44.00;;;;;;;;5052125;27;9647;-76
2022/01/05 04:14:21;;;;;;;;;39.67;39.67;;;;;;;;5052482;28;12296;-75
2022/01/05 04:16:49;;;;;;;;;65.00;54.25;;;;;;;;5058902;27;11555;-76
2022/01/05 04:19:14;;;;;;;;;56.00;45.50;;;;;;;;5051023;28;8958;-76
2022/01/05 04:21:40;;;;;;;;;58.00;50.00;;;;;;;;5067325;28;8956;-76
2022/01/05 04:24:05;;;;;;;;;71.50;59.00;;;;;;;;5072316;28;8916;-76
2022/01/05 04:26:30;;;;;;;;;65.25;54.25;;;;;;;;5068551;27;9738;-76
2022/01/05 04:28:56;;;;;;;;;61.00;49.33;;;;;;;;5052207;28;9583;-76
2022/01/05 04:31:21;;;;;;;;;51.67;47.33;;;;;;;;5052087;28;8815;-76
2022/01/05 04:33:49;;;;;;;;;63.75;54.00;;;;;;;;5050695;27;8828;-77
2022/01/05 04:36:17;;;;;;;;;61.75;51.50;;;;;;;;5055840;28;8777;-77
2022/01/05 04:38:42;;;;;;;;;70.75;60.00;;;;;;;;5061252;27;8816;-77
2022/01/05 04:41:08;;;;;;;;;53.50;48.25;;;;;;;;5051888;28;8792;-75
2022/01/05 04:43:33;;;;;;;;;52.00;44.67;;;;;;;;5079575;27;8806;-76
2022/01/05 04:45:58;;;;;;;;;60.67;51.67;;;;;;;;5079922;27;8820;-75
2022/01/05 04:48:24;;;;;;;;;46.67;44.00;;;;;;;;5115667;27;9148;-76
2022/01/05 04:50:49;;;;;;;;;47.25;43.25;;;;;;;;5054689;27;8903;-76
2022/01/05 04:53:14;;;;;;;;;46.33;44.67;;;;;;;;5050586;27;8811;-75
2022/01/05 04:55:50;;;;;;;;;49.33;45.33;;;;;;;;5048433;27;8875;-76
2022/01/05 04:58:17;;;;;;;;;54.50;45.50;;;;;;;;5054576;27;11183;-76
2022/01/05 05:00:43;;;;;;;;;50.50;46.25;;;;;;;;5050151;28;8980;-76
2022/01/05 05:03:09;;;;;;;;;46.33;43.67;;;;;;;;5052233;28;8812;-76
2022/01/05 05:05:35;;;;;;;;;53.50;46.75;;;;;;;;5051302;27;11563;-76
2022/01/05 05:08:03;;;;;;;;;49.25;44.50;;;;;;;;5050069;28;8804;-75
2022/01/05 05:10:28;;;;;;;;;67.50;56.25;;;;;;;;5051187;27;8892;-76
2022/01/05 05:12:54;;;;;;;;;40.00;39.67;;;;;;;;5051515;28;8812;-76
2022/01/05 05:15:21;;;;;;;;;63.00;54.75;;;;;;;;5051499;27;10620;-76
2022/01/05 05:17:49;;;;;;;;;52.50;47.25;;;;;;;;5062292;27;8773;-76
2022/01/05 05:20:15;;;;;;;;;67.50;57.25;;;;;;;;5051511;28;8784;-76
2022/01/05 05:22:42;;;;;;;;;52.67;47.33;;;;;;;;5051383;28;8836;-76
2022/01/05 05:25:08;;;;;;;;;43.50;41.50;;;;;;;;5067316;28;9792;-76
2022/01/05 05:27:33;;;;;;;;;67.75;56.25;;;;;;;;5069997;27;8821;-76
2022/01/05 05:29:59;;;;;;;;;50.00;46.00;;;;;;;;5069761;27;8837;-76
2022/01/05 05:32:24;;;;;;;;;66.67;56.33;;;;;;;;5071541;28;10317;-76
2022/01/05 05:34:49;;;;;;;;;54.50;48.75;;;;;;;;5069665;28;8863;-76
2022/01/05 05:37:18;;;;;;;;;56.25;49.00;;;;;;;;5069435;28;8836;-76
2022/01/05 05:39:44;;;;;;;;;43.50;40.50;;;;;;;;5065725;27;8815;-76
2022/01/05 05:42:09;;;;;;;;;56.25;49.00;;;;;;;;5050245;28;8788;-76
2022/01/05 05:44:35;;;;;;;;;67.67;57.33;;;;;;;;5103157;27;8814;-76
2022/01/05 05:47:01;;;;;;;;;61.25;49.75;;;;;;;;5096980;27;11533;-76
2022/01/05 05:49:26;;;;;;;;;66.75;56.25;;;;;;;;5067636;27;8788;-76
2022/01/05 05:51:52;;;;;;;;;55.33;48.67;;;;;;;;5053319;27;8848;-76
2022/01/05 05:54:17;;;;;;;;;53.33;47.00;;;;;;;;5049640;28;8908;-76
2022/01/05 05:56:42;;;;;;;;;52.67;47.67;;;;;;;;5051869;27;9581;-76
2022/01/05 05:59:08;;;;;;;;;70.75;58.25;;;;;;;;5049766;28;8930;-76
2022/01/05 06:01:33;;;;;;;;;37.67;37.00;;;;;;;;5051170;27;8812;-76
2022/01/05 06:03:58;;;;;;;;;63.33;53.33;;;;;;;;5049444;28;8808;-76
2022/01/05 06:06:24;;;;;;;;;68.67;57.33;;;;;;;;5050961;28;9457;-76
2022/01/05 06:08:49;;;;;;;;;62.00;53.75;;;;;;;;5050427;28;9591;-76
2022/01/05 06:11:14;;;;;;;;;66.33;53.67;;;;;;;;5050872;28;8816;-76
2022/01/05 06:13:40;;;;;;;;;61.00;50.00;;;;;;;;5050742;28;11582;-76
2022/01/05 06:16:05;;;;;;;;;47.67;44.33;;;;;;;;5053564;28;10382;-76
2022/01/05 06:18:30;;;;;;;;;72.25;61.50;;;;;;;;5062057;27;11570;-76
2022/01/05 06:21:01;;;;;;;;;61.00;52.67;;;;;;;;5050519;27;8792;-76
2022/01/05 06:23:26;;;;;;;;;67.75;58.00;;;;;;;;5049487;27;8772;-76
2022/01/05 06:25:51;;;;;;;;;63.00;54.00;;;;;;;;5048752;28;8832;-76
2022/01/05 06:28:17;;;;;;;;;69.00;59.00;;;;;;;;5050601;27;8863;-76
2022/01/05 06:30:42;;;;;;;;;56.75;46.75;;;;;;;;5050569;28;8945;-76
2022/01/05 06:33:08;;;;;;;;;74.50;62.25;;;;;;;;5049476;27;8858;-76
2022/01/05 06:35:33;;;;;;;;;68.25;58.75;;;;;;;;5048942;28;8839;-76
2022/01/05 06:37:59;;;;;;;;;59.50;51.00;;;;;;;;5050280;28;8847;-76
2022/01/05 06:40:24;;;;;;;;;58.00;49.25;;;;;;;;5049417;27;8828;-76
2022/01/05 06:42:50;;;;;;;;;66.50;55.25;;;;;;;;5047942;28;8843;-76
2022/01/05 06:45:15;;;;;;;;;62.00;54.00;;;;;;;;5062753;27;8820;-76
2022/01/05 06:47:40;;;;;;;;;68.75;56.00;;;;;;;;5072946;27;9556;-75
2022/01/05 06:50:06;;;;;;;;;59.75;51.50;;;;;;;;5055167;27;8817;-76
2022/01/05 06:52:32;;;;;;;;;70.25;59.25;;;;;;;;5071280;27;8819;-76
2022/01/05 06:54:57;;;;;;;;;39.67;37.67;;;;;;;;5049410;28;8853;-75
2022/01/05 06:57:22;;;;;;;;;55.00;49.00;;;;;;;;5050800;27;8820;-76
2022/01/05 06:59:48;;;;;;;;;56.33;49.67;;;;;;;;5047937;28;12239;-76
2022/01/05 07:02:16;;;;;;;;;70.00;60.00;;;;;;;;5050085;27;8843;-78
2022/01/05 07:04:41;;;;;;;;;69.25;59.25;;;;;;;;5052582;28;9568;-78
2022/01/05 07:07:09;;;;;;;;;63.33;53.33;;;;;;;;5048047;27;9662;-78
2022/01/05 07:09:35;;;;;;;;;61.50;52.50;;;;;;;;5049758;27;8826;-78
2022/01/05 07:12:00;;;;;;;;;51.67;47.00;;;;;;;;5068712;27;8841;-77
2022/01/05 07:14:25;;;;;;;;;62.33;54.33;;;;;;;;5053541;28;12330;-77
2022/01/05 07:16:57;;;;;;;;;59.75;52.50;;;;;;;;5060308;27;10637;-78
2022/01/05 07:19:22;;;;;;;;;56.25;49.50;;;;;;;;5048669;28;8800;-77
2022/01/05 07:21:50;;;;;;;;;69.67;58.33;;;;;;;;5049307;28;8916;-78
2022/01/05 07:24:17;;;;;;;;;53.00;48.25;;;;;;;;5048160;28;11470;-78
2022/01/05 07:26:44;;;;;;;;;72.50;61.50;;;;;;;;5048112;27;8808;-78
2022/01/05 07:29:09;;;;;;;;;64.25;54.00;;;;;;;;5048283;28;8942;-78
2022/01/05 07:31:37;;;;;;;;;66.67;57.00;;;;;;;;5047869;27;9012;-78
2022/01/05 07:34:05;;;;;;;;;59.00;50.50;;;;;;;;5047986;28;9721;-76
2022/01/05 07:36:30;;;;;;;;;42.75;41.00;;;;;;;;5048060;27;9776;-78
2022/01/05 07:38:55;;;;;;;;;56.75;50.25;;;;;;;;5050602;27;8827;-76
2022/01/05 07:41:21;;;;;;;;;61.67;51.67;;;;;;;;5047588;27;8832;-76
2022/01/05 07:43:46;;;;;;;;;64.50;54.75;;;;;;;;5086258;27;11633;-76
2022/01/05 07:46:11;;;;;;;;;52.75;47.00;;;;;;;;5077846;27;8835;-78
2022/01/05 07:48:37;;;;;;;;;40.00;40.00;;;;;;;;5088630;27;8800;-79
2022/01/05 07:51:04;;;;;;;;;7.00;6.00;;;;;;;;5069854;27;10221;-78
2022/01/05 07:53:30;;;;;;;;;54.25;46.75;;;;;;;;5084310;27;8899;-78
2022/01/05 07:55:55;;;;;;;;;13.67;12.00;;;;;;;;5041224;27;8823;-78
2022/01/05 07:58:23;;;;;;;;;61.33;52.67;;;;;;;;5050759;27;11592;-78
2022/01/05 08:00:57;;;;;;;;;45.50;41.25;;;;;;;;5087309;27;9610;-78
2022/01/05 08:03:24;;;;;;;;;23.75;23.75;;;;;;;;5050994;28;8930;-78
2022/01/05 08:05:59;;;;;;;;;60.75;53.25;;;;;;;;5122379;27;9779;-78
2022/01/05 08:08:30;;;;;;;;;44.00;42.75;;;;;;;;5052879;27;8836;-78
2022/01/05 08:10:56;;;;;;;;;67.25;56.25;;;;;;;;5052021;28;9596;-77
2022/01/05 08:13:24;;;;;;;;;56.50;47.75;;;;;;;;5051908;27;8835;-78
2022/01/05 08:15:49;;;;;;;;;64.25;54.75;;;;;;;;5067234;27;8757;-78
2022/01/05 08:18:14;;;;;;;;;62.67;53.67;;;;;;;;5069443;27;8850;-78
2022/01/05 08:20:40;;;;;;;;;41.00;40.00;;;;;;;;5050582;28;11590;-78
2022/01/05 08:23:08;;;;;;;;;57.00;48.67;;;;;;;;5056536;27;8828;-77
2022/01/05 08:25:36;;;;;;;;;59.75;52.00;;;;;;;;5063127;27;8804;-78
2022/01/05 08:28:01;;;;;;;;;57.25;49.50;;;;;;;;5060798;28;8804;-77
2022/01/05 08:30:27;;;;;;;;;53.00;47.67;;;;;;;;5050439;28;8886;-78
2022/01/05 08:32:53;;;;;;;;;60.00;49.50;;;;;;;;5051804;28;9877;-78
2022/01/05 08:35:20;;;;;;;;;65.75;57.00;;;;;;;;5063808;27;8869;-77
2022/01/05 08:37:47;;;;;;;;;64.50;51.75;;;;;;;;5096465;27;8784;-77
2022/01/05 08:40:16;;;;;;;;;48.75;44.75;;;;;;;;5049954;27;8824;-78
2022/01/05 08:42:42;;;;;;;;;72.75;62.00;;;;;;;;5050669;28;8823;-78
2022/01/05 08:45:08;;;;;;;;;59.75;51.50;;;;;;;;5089677;27;8832;-78
2022/01/05 08:47:33;;;;;;;;;43.75;41.50;;;;;;;;5057906;27;8976;-77
2022/01/05 08:49:59;;;;;;;;;44.33;42.67;;;;;;;;5068790;27;8837;-78
2022/01/05 08:52:24;;;;;;;;;61.25;52.75;;;;;;;;5065674;27;11539;-78
2022/01/05 08:54:52;;;;;;;;;66.75;56.00;;;;;;;;5052657;28;8793;-78
2022/01/05 08:57:21;;;;;;;;;76.50;60.50;;;;;;;;5055794;27;8858;-78
2022/01/05 08:59:53;;;;;;;;;40.75;38.00;;;;;;;;5051336;28;8779;-78
2022/01/05 09:02:21;;;;;;;;;53.75;46.75;;;;;;;;5052749;27;8752;-78
2022/01/05 09:04:48;;;;;;;;;32.75;31.00;;;;;;;;5053884;28;8798;-77
2022/01/05 09:07:14;;;;;;;;;49.75;45.25;;;;;;;;5056580;27;8777;-78
2022/01/05 09:09:39;;;;;;;;;50.00;46.00;;;;;;;;5049057;27;8853;-76
2022/01/05 09:12:05;;;;;;;;;63.33;51.33;;;;;;;;5051790;28;8804;-78
2022/01/05 09:14:30;;;;;;;;;55.50;48.00;;;;;;;;5051366;28;8935;-78
2022/01/05 09:16:56;;;;;;;;;47.33;43.00;;;;;;;;5047281;27;8939;-77
2022/01/05 09:19:21;;;;;;;;;53.50;47.75;;;;;;;;5048937;28;8921;-77
2022/01/05 09:21:49;;;;;;;;;33.67;33.67;;;;;;;;5051082;27;8819;-77
2022/01/05 09:24:18;;;;;;;;;56.50;48.50;;;;;;;;5049732;28;9470;-78
2022/01/05 09:26:43;;;;;;;;;60.00;51.25;;;;;;;;5049693;27;8823;-77
2022/01/05 09:29:08;;;;;;;;;43.67;41.00;;;;;;;;5055663;27;8868;-77
2022/01/05 09:31:34;;;;;;;;;41.33;39.33;;;;;;;;5052021;28;8836;-77
2022/01/05 09:33:59;;;;;;;;;36.75;36.50;;;;;;;;5049616;28;8923;-77
2022/01/05 09:36:33;;;;;;;;;18.67;16.00;;;;;;;;5061914;27;8919;-78
2022/01/05 09:41:57;;;;;;;;;45.75;43.50;;;;;;;;5050970;28;8800;-78
2022/01/05 09:44:44;;;;;;;;;25.25;24.25;;;;;;;;5083886;27;8796;-77
2022/01/05 09:47:31;;;;;;;;;37.25;32.00;;;;;;;;5050752;27;8794;-77
2022/01/05 09:50:04;;;;;;;;;61.00;51.75;;;;;;;;5049347;28;9060;-77
2022/01/05 09:52:36;;;;;;;;;31.50;29.75;;;;;;;;5104699;27;8804;-77
2022/01/05 09:55:05;;;;;;;;;56.00;48.25;;;;;;;;5070423;27;9220;-77
2022/01/05 09:57:31;;;;;;;;;63.50;52.75;;;;;;;;5054254;27;8858;-77
2022/01/05 10:00:00;;;;;;;;;59.00;51.00;;;;;;;;5059420;28;8988;-77
2022/01/05 10:02:32;;;;;;;;;69.00;57.40;;;;;;;;5054214;27;8911;-78
2022/01/05 10:04:58;;;;;;;;;76.00;64.25;;;;;;;;5058486;28;8816;-78
2022/01/05 10:07:24;;;;;;;;;75.20;63.80;;;;;;;;5050449;28;8803;-78
2022/01/05 10:09:51;;;;;;;;;90.20;76.00;;;;;;;;5049462;28;9717;-78
2022/01/05 10:12:16;;;;;;;;;96.75;87.25;;;;;;;;5049805;27;8804;-78
2022/01/05 10:14:46;;;;;;;;;90.25;75.25;;;;;;;;5048589;28;8824;-78
2022/01/05 10:17:13;;;;;;;;;98.60;88.80;;;;;;;;5049317;27;8792;-78
2022/01/05 10:19:40;;;;;;;;;108.50;107.50;;;;;;;;5050715;27;8792;-78
2022/01/05 10:22:26;;;;;;;;;97.00;83.60;;;;;;;;5050110;28;8819;-78
2022/01/05 10:24:51;;;;;;;;;90.00;72.25;;;;;;;;5049243;28;8842;-77
2022/01/05 10:27:21;;;;;;;;;100.00;90.33;;;;;;;;5050002;28;8852;-77
2022/01/05 10:29:58;;;;;;;;;88.33;71.00;;;;;;;;5046578;28;10136;-77
2022/01/05 10:32:25;;;;;;;;;67.40;56.40;;;;;;;;5050584;27;11101;-77
2022/01/05 10:35:00;;;;;;;;;68.50;58.50;;;;;;;;5049471;28;8784;-77
2022/01/05 10:37:28;;;;;;;;;45.33;42.00;;;;;;;;5048825;27;8824;-77
2022/01/05 10:40:06;;;;;;;;;43.75;42.00;;;;;;;;5049802;28;8947;-77
2022/01/05 10:42:32;;;;;;;;;43.75;41.75;;;;;;;;5048939;27;8827;-77
2022/01/05 10:45:02;;;;;;;;;47.75;42.50;;;;;;;;5121531;27;9710;-76
2022/01/05 10:47:27;;;;;;;;;38.50;38.50;;;;;;;;5059212;27;8822;-76
2022/01/05 10:49:54;;;;;;;;;34.33;34.33;;;;;;;;5049579;28;9555;-77
2022/01/05 10:52:26;;;;;;;;;51.50;45.75;;;;;;;;5069907;27;12209;-77
2022/01/05 10:54:51;;;;;;;;;43.50;40.50;;;;;;;;5049117;28;8860;-77
2022/01/05 10:57:17;;;;;;;;;34.50;34.25;;;;;;;;5054077;27;8940;-76
2022/01/05 10:59:46;;;;;;;;;61.50;53.00;;;;;;;;5069233;27;8809;-77
2022/01/05 11:02:30;;;;;;;;;45.00;42.25;;;;;;;;5070417;28;8863;-77
2022/01/05 11:05:12;;;;;;;;;52.00;44.75;;;;;;;;5063737;27;8799;-78
2022/01/05 11:07:39;;;;;;;;;60.75;50.50;;;;;;;;5048868;27;8812;-77
2022/01/05 11:10:14;;;;;;;;;50.50;45.50;;;;;;;;5046675;27;8767;-77
2022/01/05 11:12:47;;;;;;;;;53.00;46.25;;;;;;;;5064630;27;8919;-77
2022/01/05 11:15:24;;;;;;;;;60.25;50.75;;;;;;;;5103618;27;8893;-76
2022/01/05 11:18:09;;;;;;;;;39.50;36.25;;;;;;;;5055274;27;8904;-76
2022/01/05 11:20:37;;;;;;;;;53.75;45.75;;;;;;;;5047817;28;8754;-76
2022/01/05 11:23:07;;;;;;;;;59.25;49.75;;;;;;;;5054482;28;8804;-77
2022/01/05 11:25:35;;;;;;;;;58.75;48.00;;;;;;;;5049350;27;8820;-77
2022/01/05 11:28:00;;;;;;;;;54.25;46.75;;;;;;;;5049554;28;8807;-77
2022/01/05 11:30:26;;;;;;;;;58.00;50.00;;;;;;;;5049919;28;8827;-77
2022/01/05 11:32:51;;;;;;;;;66.00;55.75;;;;;;;;5048217;28;8781;-77
2022/01/05 11:35:17;;;;;;;;;55.00;47.67;;;;;;;;5044699;28;8830;-77
2022/01/05 11:37:43;;;;;;;;;56.33;45.33;;;;;;;;5052385;27;11565;-77
2022/01/05 11:40:09;;;;;;;;;52.25;47.00;;;;;;;;5051066;28;11532;-78
2022/01/05 11:42:35;;;;;;;;;43.25;40.75;;;;;;;;5052428;27;8855;-77
2022/01/05 11:45:01;;;;;;;;;64.75;55.00;;;;;;;;5051240;28;8867;-77
2022/01/05 11:47:28;;;;;;;;;64.50;53.50;;;;;;;;5051947;28;8900;-76
2022/01/05 11:49:55;;;;;;;;;60.00;51.50;;;;;;;;5052546;28;8840;-77
2022/01/05 11:52:53;;;;;;;;;39.00;36.50;;;;;;;;5107400;27;9594;-77
2022/01/05 11:55:18;;;;;;;;;64.00;52.75;;;;;;;;5098969;27;8890;-77
2022/01/05 11:58:02;;;;;;;;;47.67;42.67;;;;;;;;5056340;27;9539;-76
2022/01/05 12:00:28;;;;;;;;;48.50;42.00;;;;;;;;5050692;28;8752;-76
2022/01/05 12:02:53;;;;;;;;;64.33;53.00;;;;;;;;5052583;28;8885;-76
2022/01/05 12:05:18;;;;;;;;;62.33;53.00;;;;;;;;5051910;27;11481;-76
2022/01/05 12:07:48;;;;;;;;;60.00;51.67;;;;;;;;5052084;28;11540;-77
2022/01/05 12:10:21;;;;;;;;;66.75;56.00;;;;;;;;5051779;27;8824;-78
2022/01/05 12:13:12;;;;;;;;;50.00;44.25;;;;;;;;5050614;28;8808;-76
2022/01/05 12:15:43;;;;;;;;;44.00;40.75;;;;;;;;5054760;28;8880;-77
2022/01/05 12:18:08;;;;;;;;;58.75;49.75;;;;;;;;5093336;27;8827;-76
2022/01/05 12:20:35;;;;;;;;;49.50;44.75;;;;;;;;5051943;28;8796;-75
2022/01/05 12:23:32;;;;;;;;;50.75;44.25;;;;;;;;5050059;28;8806;-76
2022/01/05 12:26:05;;;;;;;;;65.00;55.25;;;;;;;;5056155;28;8893;-76
2022/01/05 12:28:32;;;;;;;;;57.75;47.00;;;;;;;;5051821;28;8792;-75
2022/01/05 12:30:57;;;;;;;;;57.50;49.00;;;;;;;;5050721;28;8886;-76
2022/01/05 12:33:23;;;;;;;;;40.25;38.75;;;;;;;;5051943;28;8815;-74
2022/01/05 12:35:48;;;;;;;;;32.75;31.75;;;;;;;;5050851;28;8800;-74
2022/01/05 12:38:36;;;;;;;;;50.67;45.67;;;;;;;;5052222;28;8808;-77
2022/01/05 12:41:20;;;;;;;;;50.50;43.00;;;;;;;;5050543;28;8838;-75
2022/01/05 12:43:45;;;;;;;;;59.50;49.50;;;;;;;;5055155;27;9079;-75
2022/01/05 12:46:12;;;;;;;;;54.75;46.75;;;;;;;;5050771;27;8895;-75
2022/01/05 12:48:40;;;;;;;;;53.25;45.25;;;;;;;;5056212;28;8837;-75
2022/01/05 12:51:14;;;;;;;;;47.50;42.50;;;;;;;;5082483;27;9744;-75
2022/01/05 12:53:55;;;;;;;;;49.75;45.25;;;;;;;;5039370;28;9675;-75
2022/01/05 12:56:28;;;;;;;;;51.00;41.75;;;;;;;;5057391;27;8780;-74
2022/01/05 12:58:54;;;;;;;;;57.25;49.00;;;;;;;;5051736;28;8796;-75
2022/01/05 13:01:25;;;;;;;;;37.00;33.75;;;;;;;;5052730;27;8814;-75
2022/01/05 13:03:52;;;;;;;;;50.75;43.75;;;;;;;;5051897;28;8881;-75
2022/01/05 13:06:19;;;;;;;;;34.50;33.00;;;;;;;;5064615;27;8796;-75
2022/01/05 13:08:48;;;;;;;;;48.75;42.25;;;;;;;;5043720;28;8830;-75
2022/01/05 13:11:14;;;;;;;;;51.50;44.75;;;;;;;;5050790;27;8784;-75
2022/01/05 13:13:42;;;;;;;;;47.50;40.25;;;;;;;;5051452;28;8780;-75
2022/01/05 13:16:08;;;;;;;;;48.25;42.75;;;;;;;;5051864;28;8788;-75
2022/01/05 13:18:33;;;;;;;;;37.00;36.00;;;;;;;;5114138;27;8807;-75
2022/01/05 13:20:59;;;;;;;;;48.67;44.00;;;;;;;;5050087;28;8840;-75
2022/01/05 13:23:24;;;;;;;;;65.25;53.00;;;;;;;;5051598;28;8962;-74
2022/01/05 13:25:49;;;;;;;;;59.00;50.00;;;;;;;;5054044;27;8829;-75
2022/01/05 13:28:17;;;;;;;;;70.00;57.25;;;;;;;;5057447;28;8839;-74
2022/01/05 13:30:46;;;;;;;;;70.25;58.50;;;;;;;;5070490;27;8930;-75
2022/01/05 13:33:14;;;;;;;;;53.00;47.00;;;;;;;;5050118;28;8728;-74
2022/01/05 13:35:41;;;;;;;;;65.25;53.75;;;;;;;;5049054;28;11512;-75
2022/01/05 13:38:12;;;;;;;;;76.00;62.00;;;;;;;;5051641;28;8761;-74
2022/01/05 13:40:42;;;;;;;;;36.75;33.75;;;;;;;;5052958;28;8716;-75
2022/01/05 13:43:08;;;;;;;;;49.00;44.25;;;;;;;;5069570;27;8737;-74
2022/01/05 13:45:38;;;;;;;;;67.75;56.75;;;;;;;;5070758;27;8814;-74
2022/01/05 13:48:05;;;;;;;;;84.00;70.33;;;;;;;;5060170;27;8774;-75
2022/01/05 13:50:34;;;;;;;;;60.25;50.50;;;;;;;;5052268;27;11494;-74
2022/01/05 13:53:04;;;;;;;;;79.50;64.75;;;;;;;;5056884;28;8924;-76
2022/01/05 13:55:37;;;;;;;;;76.00;62.67;;;;;;;;5051237;27;8814;-76
2022/01/05 13:58:08;;;;;;;;;75.00;62.80;;;;;;;;5052971;27;9987;-76
2022/01/05 14:00:37;;;;;;;;;61.75;51.75;;;;;;;;5050851;28;8796;-76
2022/01/05 14:03:05;;;;;;;;;85.00;70.20;;;;;;;;5049339;28;8792;-73
2022/01/05 14:05:31;;;;;;;;;61.50;52.00;;;;;;;;5051259;27;8812;-75
2022/01/05 14:08:07;;;;;;;;;67.50;55.50;;;;;;;;5048963;27;8816;-75
2022/01/05 14:10:35;;;;;;;;;74.75;61.00;;;;;;;;5049242;27;8884;-75
2022/01/05 14:13:02;;;;;;;;;57.00;47.50;;;;;;;;5050890;28;8808;-76
2022/01/05 14:15:28;;;;;;;;;56.50;48.50;;;;;;;;5051163;27;8804;-76
2022/01/05 14:18:03;;;;;;;;;52.33;44.33;;;;;;;;5050458;28;8953;-76
2022/01/05 14:20:29;;;;;;;;;50.00;44.75;;;;;;;;5051046;27;9415;-76
2022/01/05 14:23:01;;;;;;;;;63.25;53.75;;;;;;;;5050545;28;8889;-76
2022/01/05 14:25:33;;;;;;;;;54.00;45.75;;;;;;;;5050756;27;8804;-76
2022/01/05 14:28:07;;;;;;;;;58.25;49.50;;;;;;;;5063681;28;8796;-77
2022/01/05 14:30:33;;;;;;;;;66.25;55.75;;;;;;;;5050873;28;8804;-76
2022/01/05 14:32:58;;;;;;;;;56.75;48.25;;;;;;;;5048705;27;9678;-77
2022/01/05 14:35:27;;;;;;;;;66.67;55.67;;;;;;;;5051036;28;8812;-78